TimeICT,TemperatureF,Dew PointF,Humidity,Sea Level PressureIn,VisibilityMPH,Wind Direction,Wind SpeedMPH,Gust SpeedMPH,PrecipitationIn,Events,Conditions,WindDirDegrees,DateUTC
12:00 AM,80.6,71.6,74,29.95,5.0,NE,3.5,-,N/A,,Mostly Cloudy,40,2014-01-11 17:00:00
12:30 AM,80.6,71.6,74,29.95,5.0,NE,3.5,-,N/A,,Mostly Cloudy,50,2014-01-11 17:30:00
1:00 AM,80,73,73,29.90,6,Calm,Calm,,,,Scattered Clouds,,2014-01-11 18:00:00
1:00 AM,78.8,71.6,78,29.95,5.0,ENE,4.6,-,N/A,,Mostly Cloudy,60,2014-01-11 18:00:00
1:30 AM,78.8,69.8,74,29.92,5.0,ENE,3.5,-,N/A,,Mostly Cloudy,60,2014-01-11 18:30:00
2:00 AM,78.8,69.8,74,29.92,5.0,ENE,3.5,-,N/A,,Mostly Cloudy,60,2014-01-11 19:00:00
2:30 AM,78.8,69.8,74,29.89,5.0,Variable,2.3,-,N/A,,Mostly Cloudy,0,2014-01-11 19:30:00
3:00 AM,78.8,68.0,69,29.89,5.0,NE,3.5,-,N/A,,Mostly Cloudy,40,2014-01-11 20:00:00
3:30 AM,78.8,68.0,69,29.89,5.0,ENE,5.8,-,N/A,,Mostly Cloudy,60,2014-01-11 20:30:00
4:00 AM,79,70,68,29.85,6,Calm,Calm,,,,Scattered Clouds,,2014-01-11 21:00:00
4:00 AM,78.8,68.0,69,29.89,5.0,ENE,6.9,-,N/A,,Mostly Cloudy,60,2014-01-11 21:00:00
4:30 AM,78.8,68.0,69,29.89,5.0,ENE,5.8,-,N/A,,Mostly Cloudy,60,2014-01-11 21:30:00
5:00 AM,77.0,68.0,74,29.89,5.0,ENE,3.5,-,N/A,,Mostly Cloudy,60,2014-01-11 22:00:00
5:30 AM,77.0,69.8,78,29.89,5.0,ENE,3.5,-,N/A,,Mostly Cloudy,60,2014-01-11 22:30:00
6:00 AM,77.0,69.8,78,29.89,5.0,Variable,2.3,-,N/A,,Mostly Cloudy,0,2014-01-11 23:00:00
6:30 AM,77.0,69.8,78,29.92,4.3,ENE,4.6,-,N/A,,Mostly Cloudy,60,2014-01-11 23:30:00
7:00 AM,78,72,78,29.89,4,Calm,Calm,,,,Mist,,2014-01-12 00:00:00
7:00 AM,77.0,69.8,78,29.92,4.3,NNE,4.6,-,N/A,,Mostly Cloudy,30,2014-01-12 00:00:00
7:30 AM,77.0,69.8,78,29.92,4.3,ENE,3.5,-,N/A,,Mostly Cloudy,60,2014-01-12 00:30:00
8:00 AM,77.0,69.8,78,29.95,5.0,Variable,2.3,-,N/A,,Mostly Cloudy,0,2014-01-12 01:00:00
8:30 AM,82.4,71.6,70,29.95,5.0,East,3.5,-,N/A,,Mostly Cloudy,80,2014-01-12 01:30:00
9:00 AM,82.4,71.6,70,29.98,5.0,ENE,5.8,-,N/A,,Scattered Clouds,60,2014-01-12 02:00:00
9:30 AM,84.2,69.8,62,29.98,5.0,ENE,9.2,-,N/A,,Scattered Clouds,70,2014-01-12 02:30:00
10:00 AM,85,73,60,29.95,5,East,13.8,,,,Mist,90,2014-01-12 03:00:00
10:00 AM,86.0,71.6,62,29.98,5.0,ENE,8.1,-,N/A,,Scattered Clouds,70,2014-01-12 03:00:00
10:30 AM,86.0,71.6,62,29.95,5.0,Variable,6.9,-,N/A,,Scattered Clouds,0,2014-01-12 03:30:00
11:00 AM,86.0,69.8,58,29.95,5.0,East,12.7,-,N/A,,Scattered Clouds,90,2014-01-12 04:00:00
11:30 AM,87.8,68.0,52,29.95,5.0,East,10.4,-,N/A,,Scattered Clouds,100,2014-01-12 04:30:00
12:00 PM,87.8,69.8,55,29.92,5.0,East,11.5,-,N/A,,Scattered Clouds,90,2014-01-12 05:00:00
12:30 PM,87.8,69.8,55,29.92,5.0,East,10.4,-,N/A,,Scattered Clouds,90,2014-01-12 05:30:00
1:00 PM,88,72,49,29.91,5,East,12.7,,,,Haze,80,2014-01-12 06:00:00
1:00 PM,89.6,69.8,52,29.89,5.0,East,10.4,-,N/A,,Scattered Clouds,100,2014-01-12 06:00:00
1:30 PM,89.6,69.8,52,29.89,5.0,ENE,9.2,-,N/A,,Scattered Clouds,70,2014-01-12 06:30:00
2:00 PM,89.6,68.0,49,29.86,5.0,Variable,5.8,-,N/A,,Scattered Clouds,0,2014-01-12 07:00:00
2:30 PM,86.0,71.6,62,29.86,5.0,Variable,4.6,-,N/A,,Scattered Clouds,0,2014-01-12 07:30:00
3:00 PM,86.0,73.4,66,29.86,5.0,Variable,3.5,-,N/A,,Scattered Clouds,0,2014-01-12 08:00:00
3:30 PM,87.8,73.4,62,29.83,5.0,Variable,4.6,-,N/A,,Scattered Clouds,0,2014-01-12 08:30:00
4:00 PM,88,74,56,29.83,5,NNW,5.8,,,,Haze,340,2014-01-12 09:00:00
4:00 PM,86.0,71.6,62,29.83,5.0,Variable,3.5,-,N/A,,Scattered Clouds,0,2014-01-12 09:00:00
4:30 PM,86.0,71.6,62,29.86,5.0,Variable,2.3,-,N/A,,Mostly Cloudy,0,2014-01-12 09:30:00
5:00 PM,84.2,71.6,66,29.83,5.0,NW,5.8,-,N/A,,Mostly Cloudy,310,2014-01-12 10:00:00
5:30 PM,84.2,71.6,66,29.86,5.0,NW,4.6,-,N/A,,Mostly Cloudy,310,2014-01-12 10:30:00
6:00 PM,82.4,69.8,66,29.86,5.0,NW,3.5,-,N/A,,Mostly Cloudy,310,2014-01-12 11:00:00
6:30 PM,82.4,69.8,66,29.86,4.3,Variable,2.3,-,N/A,,Mostly Cloudy,0,2014-01-12 11:30:00
7:00 PM,84,72,60,29.85,4,Calm,Calm,,,,Mist,,2014-01-12 12:00:00
7:00 PM,82.4,69.8,66,29.89,4.3,Variable,1.2,-,N/A,,Mostly Cloudy,0,2014-01-12 12:00:00
7:30 PM,82.4,69.8,66,29.89,4.3,Calm,Calm,-,N/A,,Mostly Cloudy,0,2014-01-12 12:30:00
8:00 PM,82.4,69.8,66,29.92,4.3,Variable,1.2,-,N/A,,Mostly Cloudy,0,2014-01-12 13:00:00
8:30 PM,82.4,71.6,70,29.92,-9999.0,Calm,Calm,-,N/A,,Mostly Cloudy,0,2014-01-12 13:30:00
9:00 PM,82.4,71.6,70,29.92,4.3,Calm,Calm,-,N/A,,Mostly Cloudy,0,2014-01-12 14:00:00
9:30 PM,80.6,73.4,79,29.95,4.3,ENE,4.6,-,N/A,,Mostly Cloudy,60,2014-01-12 14:30:00
10:00 PM,80,76,83,29.89,4,East,5.8,,,Rain,Light Rain,100,2014-01-12 15:00:00
10:00 PM,80.6,73.4,79,29.95,4.3,East,5.8,-,N/A,Rain,Rain,90,2014-01-12 15:00:00
10:30 PM,78.8,73.4,83,29.95,4.3,East,3.5,-,N/A,,Mostly Cloudy,100,2014-01-12 15:30:00
11:00 PM,78.8,73.4,83,29.95,4.3,East,4.6,-,N/A,,Mostly Cloudy,90,2014-01-12 16:00:00
11:30 PM,78.8,73.4,83,29.95,4.3,East,6.9,-,N/A,,Mostly Cloudy,90,2014-01-12 16:30:00